sensor_id;sensor_type;location;lat;lon;timestamp;P1;P2;P0
65383;PMS5003;51986;52.788;41.368;2024-03-08T00:00:09;20.50;19.75;14.00
65383;PMS5003;51986;52.788;41.368;2024-03-08T00:02:38;17.75;16.00;12.00
65383;PMS5003;51986;52.788;41.368;2024-03-08T00:05:06;14.00;13.00;9.00
65383;PMS5003;51986;52.788;41.368;2024-03-08T00:07:35;13.00;12.75;9.25
65383;PMS5003;51986;52.788;41.368;2024-03-08T00:10:03;15.75;14.50;11.25
65383;PMS5003;51986;52.788;41.368;2024-03-08T00:12:30;17.00;16.00;12.00
65383;PMS5003;51986;52.788;41.368;2024-03-08T00:14:57;17.75;16.50;12.50
65383;PMS5003;51986;52.788;41.368;2024-03-08T00:17:24;16.00;16.00;12.00
65383;PMS5003;51986;52.788;41.368;2024-03-08T00:19:51;14.00;12.00;9.00
65383;PMS5003;51986;52.788;41.368;2024-03-08T00:22:18;17.00;14.50;12.00
65383;PMS5003;51986;52.788;41.368;2024-03-08T00:24:45;18.00;15.25;13.25
65383;PMS5003;51986;52.788;41.368;2024-03-08T00:27:12;20.50;19.25;15.00
65383;PMS5003;51986;52.788;41.368;2024-03-08T00:29:39;21.75;20.00;15.00
65383;PMS5003;51986;52.788;41.368;2024-03-08T00:32:06;17.50;16.75;12.50
65383;PMS5003;51986;52.788;41.368;2024-03-08T00:34:37;17.25;16.75;12.75
65383;PMS5003;51986;52.788;41.368;2024-03-08T00:37:04;17.75;16.00;13.00
65383;PMS5003;51986;52.788;41.368;2024-03-08T00:39:31;16.00;14.00;12.00
65383;PMS5003;51986;52.788;41.368;2024-03-08T00:41:58;15.00;13.00;11.00
65383;PMS5003;51986;52.788;41.368;2024-03-08T00:44:25;17.50;15.25;12.75
65383;PMS5003;51986;52.788;41.368;2024-03-08T00:46:52;19.00;17.50;14.00
65383;PMS5003;51986;52.788;41.368;2024-03-08T00:49:21;18.50;17.50;14.00
65383;PMS5003;51986;52.788;41.368;2024-03-08T00:51:48;16.50;16.00;12.50
65383;PMS5003;51986;52.788;41.368;2024-03-08T00:54:14;17.75;16.00;12.00
65383;PMS5003;51986;52.788;41.368;2024-03-08T00:56:42;18.00;17.25;12.00
65383;PMS5003;51986;52.788;41.368;2024-03-08T00:59:09;15.50;15.50;12.00
65383;PMS5003;51986;52.788;41.368;2024-03-08T01:01:36;17.00;16.00;12.00
65383;PMS5003;51986;52.788;41.368;2024-03-08T01:04:03;14.25;13.75;10.00
65383;PMS5003;51986;52.788;41.368;2024-03-08T01:06:30;16.25;16.00;11.00
65383;PMS5003;51986;52.788;41.368;2024-03-08T01:08:57;16.50;14.50;10.50
65383;PMS5003;51986;52.788;41.368;2024-03-08T01:11:24;18.50;17.00;12.25
65383;PMS5003;51986;52.788;41.368;2024-03-08T01:13:51;16.00;13.50;11.25
65383;PMS5003;51986;52.788;41.368;2024-03-08T01:16:18;14.00;12.00;8.00
65383;PMS5003;51986;52.788;41.368;2024-03-08T01:18:45;15.50;14.00;10.75
65383;PMS5003;51986;52.788;41.368;2024-03-08T01:21:13;15.00;14.00;11.00
65383;PMS5003;51986;52.788;41.368;2024-03-08T01:23:40;16.50;16.00;12.00
65383;PMS5003;51986;52.788;41.368;2024-03-08T01:26:07;18.25;16.25;12.25
65383;PMS5003;51986;52.788;41.368;2024-03-08T01:28:34;16.00;13.00;10.00
65383;PMS5003;51986;52.788;41.368;2024-03-08T01:31:01;12.75;11.00;7.00
65383;PMS5003;51986;52.788;41.368;2024-03-08T01:33:28;14.00;13.50;7.00
65383;PMS5003;51986;52.788;41.368;2024-03-08T01:35:55;18.00;15.75;10.75
65383;PMS5003;51986;52.788;41.368;2024-03-08T01:38:22;17.00;15.00;12.00
65383;PMS5003;51986;52.788;41.368;2024-03-08T01:40:49;16.00;14.75;11.00
65383;PMS5003;51986;52.788;41.368;2024-03-08T01:43:25;14.00;14.00;10.00
65383;PMS5003;51986;52.788;41.368;2024-03-08T01:45:54;12.00;11.00;7.75
65383;PMS5003;51986;52.788;41.368;2024-03-08T01:48:25;14.25;11.50;8.50
65383;PMS5003;51986;52.788;41.368;2024-03-08T01:50:53;14.00;12.00;9.00
65383;PMS5003;51986;52.788;41.368;2024-03-08T01:53:21;17.00;14.50;12.00
65383;PMS5003;51986;52.788;41.368;2024-03-08T01:55:49;16.00;14.50;12.00
65383;PMS5003;51986;52.788;41.368;2024-03-08T01:58:18;15.00;13.75;10.00
65383;PMS5003;51986;52.788;41.368;2024-03-08T02:00:46;14.75;14.00;12.00
65383;PMS5003;51986;52.788;41.368;2024-03-08T02:03:15;17.00;16.00;12.00
65383;PMS5003;51986;52.788;41.368;2024-03-08T02:05:43;16.00;16.00;12.00
65383;PMS5003;51986;52.788;41.368;2024-03-08T02:08:10;15.75;15.00;12.00
65383;PMS5003;51986;52.788;41.368;2024-03-08T02:10:38;16.00;15.00;12.00
65383;PMS5003;51986;52.788;41.368;2024-03-08T02:13:05;16.00;14.75;12.00
65383;PMS5003;51986;52.788;41.368;2024-03-08T02:18:23;15.25;13.00;10.00
65383;PMS5003;51986;52.788;41.368;2024-03-08T02:21:00;15.25;13.50;10.50
65383;PMS5003;51986;52.788;41.368;2024-03-08T02:23:32;15.00;14.00;11.00
65383;PMS5003;51986;52.788;41.368;2024-03-08T02:26:00;16.00;15.00;11.00
65383;PMS5003;51986;52.788;41.368;2024-03-08T02:28:27;17.50;16.00;12.00
65383;PMS5003;51986;52.788;41.368;2024-03-08T02:30:54;17.50;17.50;12.75
65383;PMS5003;51986;52.788;41.368;2024-03-08T02:33:22;18.00;15.50;12.00
65383;PMS5003;51986;52.788;41.368;2024-03-08T02:35:50;14.00;12.00;10.00
65383;PMS5003;51986;52.788;41.368;2024-03-08T02:38:18;12.50;12.00;9.00
65383;PMS5003;51986;52.788;41.368;2024-03-08T02:40:47;13.00;12.25;9.50
65383;PMS5003;51986;52.788;41.368;2024-03-08T02:43:15;15.25;14.50;10.50
65383;PMS5003;51986;52.788;41.368;2024-03-08T02:45:43;13.50;13.00;11.00
65383;PMS5003;51986;52.788;41.368;2024-03-08T02:48:11;17.50;13.75;11.00
65383;PMS5003;51986;52.788;41.368;2024-03-08T02:50:39;16.00;15.25;12.00
65383;PMS5003;51986;52.788;41.368;2024-03-08T02:53:07;15.50;15.50;12.00
65383;PMS5003;51986;52.788;41.368;2024-03-08T02:55:34;15.00;14.00;10.25
65383;PMS5003;51986;52.788;41.368;2024-03-08T02:58:01;14.00;13.00;10.00
65383;PMS5003;51986;52.788;41.368;2024-03-08T03:00:29;15.50;14.25;12.00
65383;PMS5003;51986;52.788;41.368;2024-03-08T03:02:56;14.50;13.25;12.00
65383;PMS5003;51986;52.788;41.368;2024-03-08T03:05:23;12.50;12.00;9.25
65383;PMS5003;51986;52.788;41.368;2024-03-08T03:07:51;17.75;16.00;11.50
65383;PMS5003;51986;52.788;41.368;2024-03-08T03:10:18;18.50;17.50;12.00
65383;PMS5003;51986;52.788;41.368;2024-03-08T03:12:46;21.25;18.25;13.00
65383;PMS5003;51986;52.788;41.368;2024-03-08T03:15:13;17.00;16.00;12.00
65383;PMS5003;51986;52.788;41.368;2024-03-08T03:17:40;15.00;14.00;10.00
65383;PMS5003;51986;52.788;41.368;2024-03-08T03:20:07;14.00;12.75;8.00
65383;PMS5003;51986;52.788;41.368;2024-03-08T03:22:36;15.50;14.75;10.00
65383;PMS5003;51986;52.788;41.368;2024-03-08T03:25:03;13.75;13.00;11.00
65383;PMS5003;51986;52.788;41.368;2024-03-08T03:27:32;18.00;17.25;13.75
65383;PMS5003;51986;52.788;41.368;2024-03-08T03:29:59;14.50;14.50;11.00
65383;PMS5003;51986;52.788;41.368;2024-03-08T03:32:26;16.25;15.50;11.75
65383;PMS5003;51986;52.788;41.368;2024-03-08T03:34:53;17.00;16.00;12.00
65383;PMS5003;51986;52.788;41.368;2024-03-08T03:37:20;19.75;18.00;14.00
65383;PMS5003;51986;52.788;41.368;2024-03-08T03:39:47;17.00;14.00;12.00
65383;PMS5003;51986;52.788;41.368;2024-03-08T03:42:18;14.25;12.75;10.00
65383;PMS5003;51986;52.788;41.368;2024-03-08T03:44:46;11.25;11.00;8.00
65383;PMS5003;51986;52.788;41.368;2024-03-08T03:47:14;12.00;10.00;7.00
65383;PMS5003;51986;52.788;41.368;2024-03-08T03:49:42;15.00;14.00;9.00
65383;PMS5003;51986;52.788;41.368;2024-03-08T03:52:09;15.50;14.75;10.75
65383;PMS5003;51986;52.788;41.368;2024-03-08T03:54:36;17.00;14.75;11.00
65383;PMS5003;51986;52.788;41.368;2024-03-08T03:57:03;17.25;17.00;13.00
65383;PMS5003;51986;52.788;41.368;2024-03-08T03:59:31;17.00;16.00;12.00
65383;PMS5003;51986;52.788;41.368;2024-03-08T04:01:58;15.00;14.75;10.00
65383;PMS5003;51986;52.788;41.368;2024-03-08T04:04:25;14.00;14.00;9.00
65383;PMS5003;51986;52.788;41.368;2024-03-08T04:06:52;16.00;14.00;12.00
65383;PMS5003;51986;52.788;41.368;2024-03-08T04:09:19;17.25;16.00;12.00
65383;PMS5003;51986;52.788;41.368;2024-03-08T04:11:46;15.50;14.50;12.00
65383;PMS5003;51986;52.788;41.368;2024-03-08T04:14:13;16.00;14.00;10.00
65383;PMS5003;51986;52.788;41.368;2024-03-08T04:16:40;13.50;12.25;8.00
65383;PMS5003;51986;52.788;41.368;2024-03-08T04:19:07;17.00;14.00;9.75
65383;PMS5003;51986;52.788;41.368;2024-03-08T04:21:34;14.50;14.00;8.00
65383;PMS5003;51986;52.788;41.368;2024-03-08T04:24:02;16.25;15.50;12.00
65383;PMS5003;51986;52.788;41.368;2024-03-08T04:26:29;20.00;19.00;14.00
65383;PMS5003;51986;52.788;41.368;2024-03-08T04:28:56;18.00;17.50;13.50
65383;PMS5003;51986;52.788;41.368;2024-03-08T04:31:23;19.00;17.50;14.00
65383;PMS5003;51986;52.788;41.368;2024-03-08T04:33:50;17.00;16.00;12.00
65383;PMS5003;51986;52.788;41.368;2024-03-08T04:36:18;12.50;12.50;10.00
65383;PMS5003;51986;52.788;41.368;2024-03-08T04:38:45;12.25;12.25;9.50
65383;PMS5003;51986;52.788;41.368;2024-03-08T04:41:12;17.00;17.00;12.50
65383;PMS5003;51986;52.788;41.368;2024-03-08T04:43:39;18.25;17.50;14.00
65383;PMS5003;51986;52.788;41.368;2024-03-08T04:46:06;18.00;18.00;14.00
65383;PMS5003;51986;52.788;41.368;2024-03-08T04:48:34;20.50;19.00;14.00
65383;PMS5003;51986;52.788;41.368;2024-03-08T04:51:01;18.00;16.00;14.00
65383;PMS5003;51986;52.788;41.368;2024-03-08T04:53:28;18.25;17.25;12.75
65383;PMS5003;51986;52.788;41.368;2024-03-08T04:55:55;22.00;19.50;14.00
65383;PMS5003;51986;52.788;41.368;2024-03-08T04:58:22;20.00;18.00;14.00
65383;PMS5003;51986;52.788;41.368;2024-03-08T05:00:49;15.75;15.00;12.00
65383;PMS5003;51986;52.788;41.368;2024-03-08T05:03:16;19.25;17.75;14.00
65383;PMS5003;51986;52.788;41.368;2024-03-08T05:05:43;21.50;20.00;14.00
65383;PMS5003;51986;52.788;41.368;2024-03-08T05:08:10;18.00;18.00;12.00
65383;PMS5003;51986;52.788;41.368;2024-03-08T05:10:38;16.00;16.00;12.00
65383;PMS5003;51986;52.788;41.368;2024-03-08T05:13:05;18.00;17.75;12.00
65383;PMS5003;51986;52.788;41.368;2024-03-08T05:15:32;22.75;20.25;15.50
65383;PMS5003;51986;52.788;41.368;2024-03-08T05:17:59;22.25;19.50;14.00
65383;PMS5003;51986;52.788;41.368;2024-03-08T05:20:27;22.25;19.50;14.50
65383;PMS5003;51986;52.788;41.368;2024-03-08T05:22:54;20.00;19.00;14.00
65383;PMS5003;51986;52.788;41.368;2024-03-08T05:25:21;22.25;20.00;16.00
65383;PMS5003;51986;52.788;41.368;2024-03-08T05:27:48;28.00;23.50;18.00
65383;PMS5003;51986;52.788;41.368;2024-03-08T05:30:15;30.00;24.00;19.00
65383;PMS5003;51986;52.788;41.368;2024-03-08T05:32:42;25.00;21.25;16.50
65383;PMS5003;51986;52.788;41.368;2024-03-08T05:35:10;28.75;24.00;18.00
65383;PMS5003;51986;52.788;41.368;2024-03-08T05:37:38;28.00;23.00;17.75
65383;PMS5003;51986;52.788;41.368;2024-03-08T05:40:05;30.00;25.00;19.00
65383;PMS5003;51986;52.788;41.368;2024-03-08T05:42:35;30.00;25.00;19.00
65383;PMS5003;51986;52.788;41.368;2024-03-08T05:45:03;24.25;20.75;16.00
65383;PMS5003;51986;52.788;41.368;2024-03-08T05:47:30;20.00;19.00;15.00
65383;PMS5003;51986;52.788;41.368;2024-03-08T05:49:58;18.00;18.00;14.00
65383;PMS5003;51986;52.788;41.368;2024-03-08T05:52:25;18.00;18.00;15.00
65383;PMS5003;51986;52.788;41.368;2024-03-08T05:54:52;27.50;22.75;17.25
65383;PMS5003;51986;52.788;41.368;2024-03-08T05:57:19;31.00;25.50;19.00
65383;PMS5003;51986;52.788;41.368;2024-03-08T05:59:46;29.75;24.00;18.00
65383;PMS5003;51986;52.788;41.368;2024-03-08T06:02:13;25.25;21.00;17.00
65383;PMS5003;51986;52.788;41.368;2024-03-08T06:04:40;23.00;21.00;16.00
65383;PMS5003;51986;52.788;41.368;2024-03-08T06:07:09;24.00;21.00;16.00
65383;PMS5003;51986;52.788;41.368;2024-03-08T06:09:36;26.25;21.50;17.00
65383;PMS5003;51986;52.788;41.368;2024-03-08T06:12:03;30.00;23.50;18.00
65383;PMS5003;51986;52.788;41.368;2024-03-08T06:14:30;26.75;23.00;17.00
65383;PMS5003;51986;52.788;41.368;2024-03-08T06:16:57;31.25;25.25;18.50
65383;PMS5003;51986;52.788;41.368;2024-03-08T06:19:24;30.50;24.75;18.00
65383;PMS5003;51986;52.788;41.368;2024-03-08T06:21:51;25.00;21.00;16.00
65383;PMS5003;51986;52.788;41.368;2024-03-08T06:24:18;25.00;21.00;16.75
65383;PMS5003;51986;52.788;41.368;2024-03-08T06:26:45;25.00;21.00;15.25
65383;PMS5003;51986;52.788;41.368;2024-03-08T06:29:12;30.75;25.00;19.00
65383;PMS5003;51986;52.788;41.368;2024-03-08T06:31:39;27.25;23.00;19.00
65383;PMS5003;51986;52.788;41.368;2024-03-08T06:34:06;29.00;24.50;19.00
65383;PMS5003;51986;52.788;41.368;2024-03-08T06:36:34;31.00;26.00;19.25
65383;PMS5003;51986;52.788;41.368;2024-03-08T06:39:01;27.00;23.00;18.00
65383;PMS5003;51986;52.788;41.368;2024-03-08T06:41:28;28.50;23.00;18.25
65383;PMS5003;51986;52.788;41.368;2024-03-08T06:43:55;33.00;26.00;20.00
65383;PMS5003;51986;52.788;41.368;2024-03-08T06:46:22;32.00;27.00;20.00
65383;PMS5003;51986;52.788;41.368;2024-03-08T06:48:49;28.25;24.25;18.00
65383;PMS5003;51986;52.788;41.368;2024-03-08T06:51:17;27.00;23.00;18.00
65383;PMS5003;51986;52.788;41.368;2024-03-08T06:53:44;25.50;21.75;17.50
65383;PMS5003;51986;52.788;41.368;2024-03-08T06:56:11;27.00;21.00;16.75
65383;PMS5003;51986;52.788;41.368;2024-03-08T06:58:38;26.25;22.50;17.00
65383;PMS5003;51986;52.788;41.368;2024-03-08T07:01:05;31.75;26.00;19.50
65383;PMS5003;51986;52.788;41.368;2024-03-08T07:03:33;31.00;26.50;20.00
65383;PMS5003;51986;52.788;41.368;2024-03-08T07:06:00;30.50;25.75;20.00
65383;PMS5003;51986;52.788;41.368;2024-03-08T07:08:27;33.00;28.00;20.00
65383;PMS5003;51986;52.788;41.368;2024-03-08T07:10:54;34.00;28.00;22.00
65383;PMS5003;51986;52.788;41.368;2024-03-08T07:13:21;32.00;26.00;20.00
65383;PMS5003;51986;52.788;41.368;2024-03-08T07:15:48;34.00;28.00;21.00
65383;PMS5003;51986;52.788;41.368;2024-03-08T07:18:15;31.75;26.00;20.00
65383;PMS5003;51986;52.788;41.368;2024-03-08T07:20:42;34.00;27.75;21.00
65383;PMS5003;51986;52.788;41.368;2024-03-08T07:23:10;31.25;26.00;20.00
65383;PMS5003;51986;52.788;41.368;2024-03-08T07:25:37;30.00;25.00;19.00
65383;PMS5003;51986;52.788;41.368;2024-03-08T07:28:04;30.00;25.25;19.00
65383;PMS5003;51986;52.788;41.368;2024-03-08T07:30:31;29.25;24.50;19.00
65383;PMS5003;51986;52.788;41.368;2024-03-08T07:32:58;30.00;25.00;19.75
65383;PMS5003;51986;52.788;41.368;2024-03-08T07:35:25;32.50;27.50;21.00
65383;PMS5003;51986;52.788;41.368;2024-03-08T07:37:52;31.50;26.00;20.00
65383;PMS5003;51986;52.788;41.368;2024-03-08T07:40:20;30.50;25.50;20.00
65383;PMS5003;51986;52.788;41.368;2024-03-08T07:42:48;29.00;25.00;19.00
65383;PMS5003;51986;52.788;41.368;2024-03-08T07:45:15;33.75;28.25;22.00
65383;PMS5003;51986;52.788;41.368;2024-03-08T07:47:42;34.00;28.00;22.00
65383;PMS5003;51986;52.788;41.368;2024-03-08T07:50:10;31.00;27.00;20.00
65383;PMS5003;51986;52.788;41.368;2024-03-08T07:52:37;30.50;25.25;20.00
65383;PMS5003;51986;52.788;41.368;2024-03-08T07:55:04;32.50;26.75;20.00
65383;PMS5003;51986;52.788;41.368;2024-03-08T07:57:31;33.25;27.00;20.00
65383;PMS5003;51986;52.788;41.368;2024-03-08T07:59:58;31.00;27.00;20.00
65383;PMS5003;51986;52.788;41.368;2024-03-08T08:02:27;32.00;27.00;20.00
65383;PMS5003;51986;52.788;41.368;2024-03-08T08:04:54;30.00;25.00;19.00
65383;PMS5003;51986;52.788;41.368;2024-03-08T08:07:21;31.00;25.50;20.00
65383;PMS5003;51986;52.788;41.368;2024-03-08T08:09:48;35.00;29.00;22.00
65383;PMS5003;51986;52.788;41.368;2024-03-08T08:12:15;33.00;27.50;21.00
65383;PMS5003;51986;52.788;41.368;2024-03-08T08:14:43;31.50;26.00;20.00
65383;PMS5003;51986;52.788;41.368;2024-03-08T08:17:09;30.00;25.00;19.00
65383;PMS5003;51986;52.788;41.368;2024-03-08T08:19:36;33.00;27.50;21.00
65383;PMS5003;51986;52.788;41.368;2024-03-08T08:22:04;31.00;27.00;20.00
65383;PMS5003;51986;52.788;41.368;2024-03-08T08:24:31;34.00;28.75;21.75
65383;PMS5003;51986;52.788;41.368;2024-03-08T08:26:58;33.25;27.75;21.00
65383;PMS5003;51986;52.788;41.368;2024-03-08T08:29:25;34.50;28.00;21.00
65383;PMS5003;51986;52.788;41.368;2024-03-08T08:31:52;35.00;29.00;22.00
65383;PMS5003;51986;52.788;41.368;2024-03-08T08:34:19;35.50;29.00;21.00
65383;PMS5003;51986;52.788;41.368;2024-03-08T08:36:46;35.00;29.00;22.00
65383;PMS5003;51986;52.788;41.368;2024-03-08T08:39:13;36.00;30.00;22.00
65383;PMS5003;51986;52.788;41.368;2024-03-08T08:41:40;33.00;28.00;21.00
65383;PMS5003;51986;52.788;41.368;2024-03-08T08:44:07;31.00;27.00;21.00
65383;PMS5003;51986;52.788;41.368;2024-03-08T08:46:42;33.00;27.50;20.50
65383;PMS5003;51986;52.788;41.368;2024-03-08T08:49:09;36.00;29.00;22.00
65383;PMS5003;51986;52.788;41.368;2024-03-08T08:51:36;34.00;27.75;21.00
65383;PMS5003;51986;52.788;41.368;2024-03-08T08:54:04;33.00;26.50;20.00
65383;PMS5003;51986;52.788;41.368;2024-03-08T08:56:34;31.50;26.00;20.00
65383;PMS5003;51986;52.788;41.368;2024-03-08T08:59:01;31.00;25.00;20.00
65383;PMS5003;51986;52.788;41.368;2024-03-08T09:01:28;30.00;24.50;19.00
65383;PMS5003;51986;52.788;41.368;2024-03-08T09:03:57;32.50;26.75;20.50
65383;PMS5003;51986;52.788;41.368;2024-03-08T09:06:24;33.75;28.00;21.00
65383;PMS5003;51986;52.788;41.368;2024-03-08T09:08:51;36.00;30.00;22.00
65383;PMS5003;51986;52.788;41.368;2024-03-08T09:11:18;33.00;28.00;21.00
65383;PMS5003;51986;52.788;41.368;2024-03-08T09:13:45;35.25;30.00;21.25
65383;PMS5003;51986;52.788;41.368;2024-03-08T09:16:12;35.00;29.00;22.00
65383;PMS5003;51986;52.788;41.368;2024-03-08T09:18:40;36.00;31.00;22.50
65383;PMS5003;51986;52.788;41.368;2024-03-08T09:21:07;35.25;30.00;22.00
65383;PMS5003;51986;52.788;41.368;2024-03-08T09:23:34;35.00;29.00;22.00
65383;PMS5003;51986;52.788;41.368;2024-03-08T09:28:54;33.00;28.00;21.00
65383;PMS5003;51986;52.788;41.368;2024-03-08T09:31:22;32.50;27.00;21.00
65383;PMS5003;51986;52.788;41.368;2024-03-08T09:33:49;33.50;27.00;21.00
65383;PMS5003;51986;52.788;41.368;2024-03-08T09:36:16;35.75;29.00;22.00
65383;PMS5003;51986;52.788;41.368;2024-03-08T09:38:43;36.75;29.25;22.00
65383;PMS5003;51986;52.788;41.368;2024-03-08T09:41:10;37.50;29.25;22.00
65383;PMS5003;51986;52.788;41.368;2024-03-08T09:43:38;36.00;29.25;22.00
65383;PMS5003;51986;52.788;41.368;2024-03-08T09:46:06;36.00;29.00;22.00
65383;PMS5003;51986;52.788;41.368;2024-03-08T09:48:34;37.50;29.25;22.75
65383;PMS5003;51986;52.788;41.368;2024-03-08T09:51:03;37.50;31.00;23.00
65383;PMS5003;51986;52.788;41.368;2024-03-08T09:53:32;37.00;30.00;23.00
65383;PMS5003;51986;52.788;41.368;2024-03-08T09:56:02;36.50;30.00;23.50
65383;PMS5003;51986;52.788;41.368;2024-03-08T09:58:30;38.00;31.00;24.00
65383;PMS5003;51986;52.788;41.368;2024-03-08T10:00:57;38.00;31.00;24.00
65383;PMS5003;51986;52.788;41.368;2024-03-08T10:03:25;38.00;31.00;23.00
65383;PMS5003;51986;52.788;41.368;2024-03-08T10:05:52;37.00;31.00;23.00
65383;PMS5003;51986;52.788;41.368;2024-03-08T10:08:19;38.00;31.00;23.00
65383;PMS5003;51986;52.788;41.368;2024-03-08T10:10:46;38.00;31.00;23.00
65383;PMS5003;51986;52.788;41.368;2024-03-08T10:13:13;38.00;31.00;23.00
65383;PMS5003;51986;52.788;41.368;2024-03-08T10:15:43;39.00;31.00;23.50
65383;PMS5003;51986;52.788;41.368;2024-03-08T10:18:12;38.00;31.00;23.00
65383;PMS5003;51986;52.788;41.368;2024-03-08T10:20:41;38.75;31.00;23.00
65383;PMS5003;51986;52.788;41.368;2024-03-08T10:23:08;38.00;30.75;23.00
65383;PMS5003;51986;52.788;41.368;2024-03-08T10:25:37;38.00;30.00;23.00
65383;PMS5003;51986;52.788;41.368;2024-03-08T10:28:09;38.75;31.00;23.50
65383;PMS5003;51986;52.788;41.368;2024-03-08T10:30:46;40.00;32.25;24.00
65383;PMS5003;51986;52.788;41.368;2024-03-08T10:33:16;39.50;32.00;24.00
65383;PMS5003;51986;52.788;41.368;2024-03-08T10:35:47;39.00;32.00;24.00
65383;PMS5003;51986;52.788;41.368;2024-03-08T10:38:14;38.75;31.00;23.00
65383;PMS5003;51986;52.788;41.368;2024-03-08T10:40:49;37.00;30.00;23.00
65383;PMS5003;51986;52.788;41.368;2024-03-08T10:43:21;38.00;31.00;23.00
65383;PMS5003;51986;52.788;41.368;2024-03-08T10:45:59;38.00;31.00;24.00
65383;PMS5003;51986;52.788;41.368;2024-03-08T10:48:44;38.00;31.00;24.00
65383;PMS5003;51986;52.788;41.368;2024-03-08T10:51:16;38.00;31.00;24.00
65383;PMS5003;51986;52.788;41.368;2024-03-08T10:53:46;39.00;32.00;24.00
65383;PMS5003;51986;52.788;41.368;2024-03-08T10:56:22;39.75;32.00;24.00
65383;PMS5003;51986;52.788;41.368;2024-03-08T10:58:50;41.50;33.00;26.00
65383;PMS5003;51986;52.788;41.368;2024-03-08T11:01:19;40.00;32.00;24.00
65383;PMS5003;51986;52.788;41.368;2024-03-08T11:03:48;41.00;33.00;26.00
65383;PMS5003;51986;52.788;41.368;2024-03-08T11:06:19;38.00;31.50;24.00
65383;PMS5003;51986;52.788;41.368;2024-03-08T11:09:31;39.00;32.00;24.00
65383;PMS5003;51986;52.788;41.368;2024-03-08T11:12:18;38.00;31.25;24.00
65383;PMS5003;51986;52.788;41.368;2024-03-08T11:14:51;39.00;32.00;24.00
65383;PMS5003;51986;52.788;41.368;2024-03-08T11:17:20;38.00;31.00;24.00
65383;PMS5003;51986;52.788;41.368;2024-03-08T11:19:52;37.00;30.00;23.00
65383;PMS5003;51986;52.788;41.368;2024-03-08T11:22:24;39.00;31.50;24.00
65383;PMS5003;51986;52.788;41.368;2024-03-08T11:25:03;38.00;31.00;23.00
65383;PMS5003;51986;52.788;41.368;2024-03-08T11:27:33;36.25;30.00;23.00
65383;PMS5003;51986;52.788;41.368;2024-03-08T11:30:02;38.00;31.00;23.00
65383;PMS5003;51986;52.788;41.368;2024-03-08T11:32:31;37.00;30.50;24.00
65383;PMS5003;51986;52.788;41.368;2024-03-08T11:34:58;37.00;31.00;24.00
65383;PMS5003;51986;52.788;41.368;2024-03-08T11:37:26;39.00;32.50;24.50
65383;PMS5003;51986;52.788;41.368;2024-03-08T11:39:54;40.00;32.50;26.00
65383;PMS5003;51986;52.788;41.368;2024-03-08T11:42:22;39.00;31.00;24.00
65383;PMS5003;51986;52.788;41.368;2024-03-08T11:44:50;39.00;31.00;24.00
65383;PMS5003;51986;52.788;41.368;2024-03-08T11:47:19;38.00;31.75;24.00
65383;PMS5003;51986;52.788;41.368;2024-03-08T11:50:07;38.00;31.00;24.00
65383;PMS5003;51986;52.788;41.368;2024-03-08T11:52:37;39.00;31.50;24.00
65383;PMS5003;51986;52.788;41.368;2024-03-08T11:55:04;36.75;30.00;23.00
65383;PMS5003;51986;52.788;41.368;2024-03-08T11:57:32;39.00;31.00;24.00
65383;PMS5003;51986;52.788;41.368;2024-03-08T11:59:59;37.00;30.00;24.00
65383;PMS5003;51986;52.788;41.368;2024-03-08T12:02:26;37.00;30.00;23.75
65383;PMS5003;51986;52.788;41.368;2024-03-08T12:04:56;36.00;30.00;23.00
65383;PMS5003;51986;52.788;41.368;2024-03-08T12:07:23;37.00;30.00;23.00
65383;PMS5003;51986;52.788;41.368;2024-03-08T12:12:47;35.00;30.00;23.00
65383;PMS5003;51986;52.788;41.368;2024-03-08T12:15:19;35.00;30.00;23.00
65383;PMS5003;51986;52.788;41.368;2024-03-08T12:17:49;36.00;30.00;23.00
65383;PMS5003;51986;52.788;41.368;2024-03-08T12:20:20;35.25;30.00;23.00
65383;PMS5003;51986;52.788;41.368;2024-03-08T12:22:55;36.00;29.50;23.00
65383;PMS5003;51986;52.788;41.368;2024-03-08T12:25:27;37.25;30.00;23.50
65383;PMS5003;51986;52.788;41.368;2024-03-08T12:28:11;38.00;30.25;23.00
65383;PMS5003;51986;52.788;41.368;2024-03-08T12:30:47;38.00;31.00;23.75
65383;PMS5003;51986;52.788;41.368;2024-03-08T12:33:17;39.00;31.00;24.25
65383;PMS5003;51986;52.788;41.368;2024-03-08T12:35:51;39.00;31.50;24.00
65383;PMS5003;51986;52.788;41.368;2024-03-08T12:38:21;37.00;31.00;24.00
65383;PMS5003;51986;52.788;41.368;2024-03-08T12:40:51;37.00;31.00;23.00
65383;PMS5003;51986;52.788;41.368;2024-03-08T12:43:23;37.00;31.00;23.00
65383;PMS5003;51986;52.788;41.368;2024-03-08T12:45:50;37.75;31.00;23.00
65383;PMS5003;51986;52.788;41.368;2024-03-08T12:48:18;37.00;30.00;22.00
65383;PMS5003;51986;52.788;41.368;2024-03-08T12:50:45;37.00;30.50;23.25
65383;PMS5003;51986;52.788;41.368;2024-03-08T12:53:13;37.00;30.00;23.00
65383;PMS5003;51986;52.788;41.368;2024-03-08T12:55:41;35.00;29.00;22.00
65383;PMS5003;51986;52.788;41.368;2024-03-08T12:58:09;35.00;29.00;22.00
65383;PMS5003;51986;52.788;41.368;2024-03-08T13:00:36;35.00;28.00;22.00
65383;PMS5003;51986;52.788;41.368;2024-03-08T13:03:04;35.00;28.50;21.25
65383;PMS5003;51986;52.788;41.368;2024-03-08T13:05:34;35.00;28.75;22.00
65383;PMS5003;51986;52.788;41.368;2024-03-08T13:08:03;35.00;29.00;22.50
65383;PMS5003;51986;52.788;41.368;2024-03-08T13:10:31;34.50;29.00;22.00
65383;PMS5003;51986;52.788;41.368;2024-03-08T13:12:59;34.75;29.00;22.00
65383;PMS5003;51986;52.788;41.368;2024-03-08T13:15:27;37.00;30.00;22.00
65383;PMS5003;51986;52.788;41.368;2024-03-08T13:17:56;36.50;30.00;22.00
65383;PMS5003;51986;52.788;41.368;2024-03-08T13:20:23;35.00;28.00;21.00
65383;PMS5003;51986;52.788;41.368;2024-03-08T13:22:59;37.00;30.00;22.00
65383;PMS5003;51986;52.788;41.368;2024-03-08T13:25:26;34.00;28.75;22.00
65383;PMS5003;51986;52.788;41.368;2024-03-08T13:27:53;35.00;28.00;22.00
65383;PMS5003;51986;52.788;41.368;2024-03-08T13:30:20;32.00;27.00;20.00
65383;PMS5003;51986;52.788;41.368;2024-03-08T13:32:48;33.75;28.75;22.25
65383;PMS5003;51986;52.788;41.368;2024-03-08T13:35:18;35.25;29.00;23.00
65383;PMS5003;51986;52.788;41.368;2024-03-08T13:37:48;36.25;30.00;23.00
65383;PMS5003;51986;52.788;41.368;2024-03-08T13:40:17;37.00;30.00;23.00
65383;PMS5003;51986;52.788;41.368;2024-03-08T13:42:48;37.00;31.00;23.00
65383;PMS5003;51986;52.788;41.368;2024-03-08T13:45:15;38.00;31.25;24.00
65383;PMS5003;51986;52.788;41.368;2024-03-08T13:47:46;33.00;28.00;22.00